createdAt,value
2019-02-07T00:02:20.666Z,100266.80
2019-02-07T00:04:48.388Z,100256.97
2019-02-07T00:07:14.852Z,100258.80
2019-02-07T00:09:41.514Z,100252.83
2019-02-07T00:12:07.885Z,100247.98
2019-02-07T00:14:39.861Z,100247.43
2019-02-07T00:17:02.582Z,100254.12
2019-02-07T00:19:28.998Z,100246.73
2019-02-07T00:21:55.294Z,100240.45
2019-02-07T00:24:21.926Z,100247.59
2019-02-07T00:26:48.271Z,100247.31
2019-02-07T00:29:14.588Z,100249.61
2019-02-07T00:31:40.888Z,100249.42
2019-02-07T00:34:07.393Z,100242.88
2019-02-07T00:36:33.755Z,100235.62
2019-02-07T00:39:01.196Z,100235.39
2019-02-07T00:41:29.696Z,100226.41
2019-02-07T00:43:56.426Z,100223.02
2019-02-07T00:46:22.996Z,100213.69
2019-02-07T00:48:49.610Z,100213.78
2019-02-07T00:51:16.207Z,100212.94
2019-02-07T00:53:42.564Z,100215.55
2019-02-07T00:56:09.108Z,100214.94
2019-02-07T00:58:35.437Z,100212.43
2019-02-07T01:01:02.357Z,100204.20
2019-02-07T01:03:29.661Z,100199.11
2019-02-07T01:05:56.278Z,100189.48
2019-02-07T01:08:22.606Z,100187.78
2019-02-07T01:10:49.185Z,100177.00
2019-02-07T01:13:16.049Z,100179.00
2019-02-07T01:15:42.359Z,100172.46
2019-02-07T01:18:08.998Z,100165.34
2019-02-07T01:20:35.800Z,100159.95
2019-02-07T01:23:02.230Z,100160.29
2019-02-07T01:25:28.563Z,100153.41
2019-02-07T01:27:54.879Z,100151.50
2019-02-07T01:30:25.777Z,100148.78
2019-02-07T01:32:52.376Z,100146.48
2019-02-07T01:35:18.947Z,100140.19
2019-02-07T01:37:45.659Z,100133.23
2019-02-07T01:40:15.569Z,100119.77
2019-02-07T01:42:42.152Z,100116.46
2019-02-07T01:45:13.451Z,100113.95
2019-02-07T01:47:39.840Z,100113.83
2019-02-07T01:50:13.833Z,100114.72
2019-02-07T01:52:41.000Z,100111.16
2019-02-07T01:55:07.793Z,100110.85
2019-02-07T01:57:34.465Z,100107.16
2019-02-07T02:00:01.039Z,100102.15
2019-02-07T02:02:27.327Z,100102.93
2019-02-07T02:04:53.648Z,100104.32
2019-02-07T02:07:19.962Z,100095.00
2019-02-07T02:09:46.304Z,100091.61
2019-02-07T02:12:12.616Z,100081.14
2019-02-07T02:14:39.714Z,100081.22
2019-02-07T02:17:06.314Z,100080.09
2019-02-07T02:19:32.894Z,100069.73
2019-02-07T02:21:59.296Z,100069.84
2019-02-07T02:24:25.927Z,100064.41
2019-02-07T02:26:52.217Z,100066.89
2019-02-07T02:29:18.877Z,100077.93
2019-02-07T02:31:45.466Z,100072.44
2019-02-07T02:34:12.005Z,100066.54
2019-02-07T02:36:38.586Z,100069.29
2019-02-07T02:39:06.507Z,100066.00
2019-02-07T02:41:33.386Z,100060.59
2019-02-07T02:44:00.704Z,100053.91
2019-02-07T02:46:27.274Z,100054.80
2019-02-07T02:48:53.655Z,100056.66
2019-02-07T02:51:19.939Z,100052.96
2019-02-07T02:53:46.360Z,100048.62
2019-02-07T02:56:12.673Z,100049.34
2019-02-07T02:58:38.997Z,100045.20
2019-02-07T03:01:23.892Z,100039.08
2019-02-07T03:03:52.366Z,100034.44
2019-02-07T03:06:39.263Z,100032.57
2019-02-07T03:09:10.950Z,100017.64
2019-02-07T03:11:56.946Z,100010.83
2019-02-07T03:14:28.685Z,100005.68
2019-02-07T03:17:04.184Z,99993.86
2019-02-07T03:19:48.727Z,99988.27
2019-02-07T03:22:33.289Z,99982.69
2019-02-07T03:25:18.162Z,99981.09
2019-02-07T03:27:49.513Z,99980.63
2019-02-07T03:30:34.079Z,99980.45
2019-02-07T03:33:11.165Z,99972.80
2019-02-07T03:35:45.371Z,99973.68
2019-02-07T03:38:16.462Z,99971.11
2019-02-07T03:40:45.171Z,99967.22
2019-02-07T03:43:16.561Z,99965.05
2019-02-07T03:45:45.080Z,99964.23
2019-02-07T03:48:25.314Z,99956.98
2019-02-07T03:50:58.157Z,99952.63
2019-02-07T03:53:43.114Z,99951.84
2019-02-07T03:56:30.361Z,99944.80
2019-02-07T03:59:04.482Z,99954.72
2019-02-07T04:01:32.737Z,99946.16
2019-02-07T04:04:00.983Z,99945.00
2019-02-07T04:06:29.568Z,99943.41
2019-02-07T04:09:14.327Z,99937.32
2019-02-07T04:11:45.445Z,99925.88
2019-02-07T04:14:13.702Z,99919.92
2019-02-07T04:16:56.730Z,99916.34
2019-02-07T04:19:23.101Z,99915.29
2019-02-07T04:22:06.362Z,99916.95
2019-02-07T04:24:53.033Z,99913.66
2019-02-07T04:27:31.282Z,99902.63
2019-02-07T04:30:05.179Z,99905.44
2019-02-07T04:32:42.447Z,99906.36
2019-02-07T04:35:10.902Z,99902.36
2019-02-07T04:37:39.352Z,99892.44
2019-02-07T04:40:12.409Z,99882.59
2019-02-07T04:42:41.688Z,99884.72
2019-02-07T04:45:10.183Z,99875.31
2019-02-07T04:47:38.728Z,99873.52
2019-02-07T04:50:10.425Z,99880.39
2019-02-07T04:52:41.783Z,99878.12
2019-02-07T04:55:26.683Z,99875.24
2019-02-07T04:57:54.968Z,99873.11
2019-02-07T05:00:21.659Z,99867.97
2019-02-07T05:02:53.548Z,99861.58
2019-02-07T05:05:22.019Z,99858.89
2019-02-07T05:07:50.378Z,99846.62
2019-02-07T05:10:34.010Z,99849.41
2019-02-07T05:13:20.617Z,99838.20
2019-02-07T05:15:49.238Z,99840.63
2019-02-07T05:18:17.832Z,99839.09
2019-02-07T05:20:46.377Z,99843.83
2019-02-07T05:23:20.400Z,99844.64
2019-02-07T05:26:04.985Z,99853.50
2019-02-07T05:28:39.195Z,99847.14
2019-02-07T05:31:07.494Z,99848.39
2019-02-07T05:33:41.979Z,99849.72
2019-02-07T05:36:10.539Z,99845.42
2019-02-07T05:38:48.071Z,99848.91
2019-02-07T05:41:19.567Z,99844.83
2019-02-07T05:43:55.180Z,99839.17
2019-02-07T05:46:50.773Z,99830.64
2019-02-07T05:49:18.346Z,99841.37
2019-02-07T05:51:44.692Z,99806.75
2019-02-07T05:54:31.249Z,99842.22
2019-02-07T05:57:11.586Z,99843.28
2019-02-07T05:59:58.309Z,99836.99
2019-02-07T06:02:35.551Z,99836.55
2019-02-07T06:05:05.217Z,99836.85
2019-02-07T06:07:33.709Z,99828.13
2019-02-07T06:10:18.949Z,99824.75
2019-02-07T06:12:45.388Z,99824.34
2019-02-07T06:15:29.072Z,99816.77
2019-02-07T06:18:00.583Z,99828.13
2019-02-07T06:20:33.114Z,99823.61
2019-02-07T06:23:01.615Z,99821.00
2019-02-07T06:25:38.764Z,99822.07
2019-02-07T06:28:14.158Z,99819.58
2019-02-07T06:30:44.135Z,99811.75
2019-02-07T06:33:20.877Z,99816.23
2019-02-07T06:36:04.622Z,99818.69
2019-02-07T06:38:47.893Z,99822.48
2019-02-07T06:41:15.131Z,99811.70
2019-02-07T06:43:43.590Z,99810.46
2019-02-07T06:46:17.520Z,99810.02
2019-02-07T06:48:48.454Z,99815.61
2019-02-07T06:51:17.091Z,99812.84
2019-02-07T06:53:43.709Z,99814.31
2019-02-07T06:56:11.958Z,99807.28
2019-02-07T06:58:43.915Z,99802.34
2019-02-07T07:01:24.243Z,99810.22
2019-02-07T07:04:08.829Z,99804.59
2019-02-07T07:06:43.157Z,99805.67
2019-02-07T07:09:11.883Z,99801.56
2019-02-07T07:11:55.177Z,99797.75
2019-02-07T07:14:35.244Z,99801.01
2019-02-07T07:17:10.864Z,99792.31
2019-02-07T07:19:55.502Z,99782.34
2019-02-07T07:22:23.713Z,99789.42
2019-02-07T07:24:49.999Z,99786.78
2019-02-07T07:27:29.939Z,99780.09
2019-02-07T07:30:01.308Z,99776.38
2019-02-07T07:32:45.867Z,99774.52
2019-02-07T07:35:14.325Z,99775.80
2019-02-07T07:37:55.676Z,99761.91
2019-02-07T07:40:40.129Z,99758.72
2019-02-07T07:43:26.870Z,99748.67
2019-02-07T07:46:11.392Z,99746.27
2019-02-07T07:48:40.427Z,99739.78
2019-02-07T07:51:25.287Z,99740.58
2019-02-07T07:54:10.050Z,99742.80
2019-02-07T07:56:45.087Z,99740.77
2019-02-07T07:59:26.465Z,99744.83
2019-02-07T08:02:10.988Z,99743.77
2019-02-07T08:04:41.866Z,99749.29
2019-02-07T08:07:14.365Z,99745.95
2019-02-07T08:09:42.584Z,99746.76
2019-02-07T08:12:13.477Z,99742.22
2019-02-07T08:14:47.904Z,99740.76
2019-02-07T08:17:22.052Z,99745.78
2019-02-07T08:19:53.521Z,99746.25
2019-02-07T08:22:24.381Z,99747.63
2019-02-07T08:25:08.926Z,99740.44
2019-02-07T08:27:38.372Z,99744.22
2019-02-07T08:30:11.116Z,99733.73
2019-02-07T08:32:39.525Z,99717.97
2019-02-07T08:35:08.862Z,99708.78
2019-02-07T08:37:53.452Z,99708.84
2019-02-07T08:40:21.690Z,99702.66
2019-02-07T08:42:53.552Z,99699.42
2019-02-07T08:45:38.407Z,99698.97
2019-02-07T08:48:06.722Z,99690.02
2019-02-07T08:50:35.857Z,99690.56
2019-02-07T08:53:04.354Z,99682.41
2019-02-07T08:55:34.983Z,99684.05
2019-02-07T08:58:02.876Z,99676.95
2019-02-07T09:00:34.011Z,99679.19
2019-02-07T09:03:05.206Z,99678.59
2019-02-07T09:05:40.265Z,99672.17
2019-02-07T09:08:20.623Z,99658.22
2019-02-07T09:10:51.798Z,99675.61
2019-02-07T09:13:36.638Z,99665.34
2019-02-07T09:16:21.221Z,99665.14
2019-02-07T09:18:47.634Z,99664.27
2019-02-07T09:21:14.274Z,99673.13
2019-02-07T09:23:48.481Z,99669.27
2019-02-07T09:26:16.704Z,99664.27
2019-02-07T09:29:01.527Z,99678.85
2019-02-07T09:31:30.726Z,99679.91
2019-02-07T09:34:06.139Z,99679.97
2019-02-07T09:36:50.710Z,99676.64
2019-02-07T09:39:19.287Z,99673.97
2019-02-07T09:41:50.184Z,99676.25
2019-02-07T09:44:30.461Z,99673.55
2019-02-07T09:46:58.664Z,99676.48
2019-02-07T09:49:27.622Z,99671.53
2019-02-07T09:51:58.723Z,99675.77
2019-02-07T09:54:27.065Z,99673.86
2019-02-07T09:57:10.094Z,99673.35
2019-02-07T09:59:54.725Z,99666.03
2019-02-07T10:02:24.331Z,99665.92
2019-02-07T10:04:55.201Z,99655.52
2019-02-07T10:07:26.130Z,99654.55
2019-02-07T10:09:58.496Z,99653.82
2019-02-07T10:12:42.970Z,99650.05
2019-02-07T10:15:26.018Z,99652.63
2019-02-07T10:17:54.513Z,99649.84
2019-02-07T10:20:28.825Z,99643.52
2019-02-07T10:22:57.159Z,99637.77
2019-02-07T10:25:41.979Z,99620.50
2019-02-07T10:28:16.479Z,99625.23
2019-02-07T10:30:44.737Z,99626.95
2019-02-07T10:33:15.607Z,99627.54
2019-02-07T10:36:01.717Z,99616.59
2019-02-07T10:38:45.039Z,99613.86
2019-02-07T10:41:28.300Z,99608.31
2019-02-07T10:43:55.650Z,99604.80
2019-02-07T10:46:40.598Z,99573.86
2019-02-07T10:49:19.769Z,99591.70
2019-02-07T10:51:48.132Z,99590.41
2019-02-07T10:54:29.668Z,99590.13
2019-02-07T10:57:10.098Z,99585.48
2019-02-07T10:59:38.687Z,99589.44
2019-02-07T11:02:16.765Z,99587.19
2019-02-07T11:05:04.142Z,99588.63
2019-02-07T11:07:38.484Z,99585.59
2019-02-07T11:10:17.339Z,99587.13
2019-02-07T11:13:01.016Z,99571.33
2019-02-07T11:15:29.732Z,99572.54
2019-02-07T11:18:01.142Z,99561.32
2019-02-07T11:20:44.503Z,99552.77
2019-02-07T11:23:18.675Z,99554.52
2019-02-07T11:26:02.277Z,99551.56
2019-02-07T11:28:36.473Z,99557.13
2019-02-07T11:31:06.796Z,99547.80
2019-02-07T11:33:38.690Z,99539.76
2019-02-07T11:36:23.703Z,99529.34
2019-02-07T11:38:55.738Z,99539.23
2019-02-07T11:41:33.228Z,99541.13
2019-02-07T11:44:19.106Z,99546.64
2019-02-07T11:47:05.631Z,99539.96
2019-02-07T11:49:37.711Z,99538.63
2019-02-07T11:52:23.641Z,99531.59
2019-02-07T11:54:58.127Z,99533.45
2019-02-07T11:57:35.432Z,99529.18
2019-02-07T12:00:15.377Z,99528.57
2019-02-07T12:03:00.281Z,99530.48
2019-02-07T12:05:43.593Z,99536.02
2019-02-07T12:08:13.174Z,99540.39
2019-02-07T12:10:41.714Z,99542.14
2019-02-07T12:13:10.253Z,99539.77
2019-02-07T12:15:44.548Z,99538.92
2019-02-07T12:18:15.992Z,99529.95
2019-02-07T12:20:48.090Z,99525.61
2019-02-07T12:23:19.389Z,99528.95
2019-02-07T12:25:47.662Z,99522.96
2019-02-07T12:28:31.205Z,99520.48
2019-02-07T12:31:06.002Z,99512.14
2019-02-07T12:33:49.458Z,99518.03
2019-02-07T12:36:33.660Z,99515.34
2019-02-07T12:39:19.768Z,99507.75
2019-02-07T12:41:51.570Z,99505.39
2019-02-07T12:44:36.289Z,99503.54
2019-02-07T12:47:18.024Z,99500.23
2019-02-07T12:49:58.585Z,99500.27
2019-02-07T12:52:40.351Z,99498.30
2019-02-07T12:55:09.786Z,99498.85
2019-02-07T12:57:38.025Z,99497.22
2019-02-07T13:00:11.995Z,99488.70
2019-02-07T13:02:47.248Z,99488.16
2019-02-07T13:05:15.932Z,99490.08
2019-02-07T13:07:47.157Z,99455.61
2019-02-07T13:10:16.807Z,99497.55
2019-02-07T13:12:45.056Z,99484.91
2019-02-07T13:15:14.604Z,99477.63
2019-02-07T13:17:48.857Z,99475.42
2019-02-07T13:20:26.156Z,99469.70
2019-02-07T13:23:11.168Z,99468.18
2019-02-07T13:25:40.496Z,99466.55
2019-02-07T13:28:13.214Z,99465.88
2019-02-07T13:30:57.730Z,99470.55
2019-02-07T13:33:28.940Z,99468.74
2019-02-07T13:35:58.345Z,99466.99
2019-02-07T13:38:29.526Z,99462.17
2019-02-07T13:41:03.663Z,99458.96
2019-02-07T13:43:30.251Z,99459.30
2019-02-07T13:46:02.301Z,99455.20
2019-02-07T13:48:30.727Z,99452.02
2019-02-07T13:51:15.241Z,99449.44
2019-02-07T13:53:49.691Z,99455.79
2019-02-07T13:56:27.950Z,99457.25
2019-02-07T13:58:54.343Z,99467.18
2019-02-07T14:01:40.396Z,99457.50
2019-02-07T14:04:20.385Z,99456.40
2019-02-07T14:06:51.812Z,99449.77
2019-02-07T14:09:36.496Z,99443.27
2019-02-07T14:12:05.331Z,99444.06
2019-02-07T14:14:38.159Z,99449.72
2019-02-07T14:17:06.719Z,99456.33
2019-02-07T14:20:02.991Z,99455.84
2019-02-07T14:22:22.987Z,99457.60
2019-02-07T14:25:06.331Z,99456.67
2019-02-07T14:27:35.532Z,99460.78
2019-02-07T14:30:11.558Z,99458.05
2019-02-07T14:32:40.374Z,99453.91
2019-02-07T14:35:28.789Z,99463.34
2019-02-07T14:37:59.967Z,99456.98
2019-02-07T14:40:40.607Z,99458.09
2019-02-07T14:43:12.074Z,99468.05
2019-02-07T14:45:40.585Z,99467.46
2019-02-07T14:48:07.252Z,99464.59
2019-02-07T14:50:33.934Z,99466.12
2019-02-07T14:53:02.099Z,99467.50
2019-02-07T14:55:28.713Z,99465.22
2019-02-07T14:57:55.051Z,99464.17
2019-02-07T15:00:24.385Z,99473.50
2019-02-07T15:02:50.746Z,99464.31
2019-02-07T15:05:17.074Z,99468.80
2019-02-07T15:07:43.686Z,99469.77
2019-02-07T15:10:18.111Z,99469.95
2019-02-07T15:12:45.534Z,99476.37
2019-02-07T15:15:16.499Z,99473.19
2019-02-07T15:17:43.174Z,99466.06
2019-02-07T15:20:11.380Z,99473.23
2019-02-07T15:22:38.087Z,99464.79
2019-02-07T15:25:09.995Z,99472.17
2019-02-07T15:27:36.749Z,99472.38
2019-02-07T15:30:11.694Z,99476.94
2019-02-07T15:32:38.306Z,99480.69
2019-02-07T15:35:32.682Z,99475.87
2019-02-07T15:38:00.182Z,99477.10
2019-02-07T15:40:26.542Z,99475.11
2019-02-07T15:42:53.631Z,99479.55
2019-02-07T15:45:20.367Z,99484.42
2019-02-07T15:47:47.051Z,99484.39
2019-02-07T15:50:18.822Z,99483.09
2019-02-07T15:52:45.292Z,99482.40
2019-02-07T15:55:12.510Z,99485.69
2019-02-07T15:57:39.266Z,99490.41
2019-02-07T16:00:37.562Z,99492.70
2019-02-07T16:03:09.760Z,99498.25
2019-02-07T16:05:36.204Z,99491.26
2019-02-07T16:08:03.151Z,99499.66
2019-02-07T16:10:29.757Z,99499.97
2019-02-07T16:12:59.542Z,99500.50
2019-02-07T16:15:25.961Z,99503.66
2019-02-07T16:17:52.315Z,99502.58
2019-02-07T16:20:21.373Z,99498.23
2019-02-07T16:22:48.271Z,99500.10
2019-02-07T16:25:15.822Z,99495.38
2019-02-07T16:27:42.425Z,99496.47
2019-02-07T16:30:12.897Z,99500.14
2019-02-07T16:32:39.323Z,99507.28
2019-02-07T16:35:06.379Z,99510.92
2019-02-07T16:37:33.022Z,99519.14
2019-02-07T16:40:00.377Z,99517.02
2019-02-07T16:42:27.055Z,99519.88
2019-02-07T16:44:53.526Z,99519.34
2019-02-07T16:47:19.980Z,99517.01
2019-02-07T16:49:46.376Z,99518.58
2019-02-07T16:52:13.020Z,99518.05
2019-02-07T16:54:39.366Z,99514.80
2019-02-07T16:57:05.938Z,99518.90
2019-02-07T16:59:32.627Z,99511.03
2019-02-07T17:01:59.361Z,99514.66
2019-02-07T17:04:25.704Z,99516.66
2019-02-07T17:06:52.381Z,99519.08
2019-02-07T17:09:21.023Z,99517.92
2019-02-07T17:11:47.410Z,99516.77
2019-02-07T17:14:14.035Z,99515.78
2019-02-07T17:16:41.048Z,99518.63
2019-02-07T17:19:07.378Z,99523.88
2019-02-07T17:21:33.680Z,99526.08
2019-02-07T17:24:00.271Z,99529.72
2019-02-07T17:26:27.132Z,99530.63
2019-02-07T17:28:53.635Z,99526.80
2019-02-07T17:31:20.648Z,99526.20
2019-02-07T17:33:47.186Z,99528.87
2019-02-07T17:36:14.212Z,99526.98
2019-02-07T17:38:41.976Z,99532.80
2019-02-07T17:41:11.141Z,99528.28
2019-02-07T17:43:40.345Z,99534.02
2019-02-07T17:46:07.133Z,99543.33
2019-02-07T17:48:34.099Z,99547.36
2019-02-07T17:51:00.883Z,99544.09
2019-02-07T17:53:28.700Z,99548.66
2019-02-07T17:55:55.344Z,99544.45
2019-02-07T17:58:21.858Z,99545.89
2019-02-07T18:01:00.826Z,99539.59
2019-02-07T18:03:27.609Z,99537.63
2019-02-07T18:05:53.941Z,99544.09
2019-02-07T18:08:20.494Z,99548.66
2019-02-07T18:10:47.877Z,99545.37
2019-02-07T18:13:16.457Z,99550.30
2019-02-07T18:15:43.112Z,99553.66
2019-02-07T18:18:09.581Z,99553.38
2019-02-07T18:20:36.343Z,99555.09
2019-02-07T18:23:03.272Z,99560.28
2019-02-07T18:25:29.898Z,99570.64
2019-02-07T18:28:01.579Z,99563.08
2019-02-07T18:30:28.160Z,99565.36
2019-02-07T18:32:54.759Z,99575.58
2019-02-07T18:35:21.549Z,99570.82
2019-02-07T18:37:48.107Z,99574.87
2019-02-07T18:40:22.019Z,99578.62
2019-02-07T18:42:48.522Z,99583.95
2019-02-07T18:45:18.060Z,99584.61
2019-02-07T18:47:44.918Z,99590.24
2019-02-07T18:50:22.201Z,99585.06
2019-02-07T18:52:49.134Z,99578.94
2019-02-07T18:55:16.001Z,99585.88
2019-02-07T18:57:42.983Z,99583.22
2019-02-07T19:00:21.090Z,99590.53
2019-02-07T19:02:52.786Z,99590.88
2019-02-07T19:05:21.677Z,99597.28
2019-02-07T19:07:48.121Z,99590.73
2019-02-07T19:10:21.459Z,99580.90
2019-02-07T19:12:49.252Z,99574.81
2019-02-07T19:15:38.442Z,99573.17
2019-02-07T19:18:06.030Z,99581.92
2019-02-07T19:20:32.468Z,99593.02
2019-02-07T19:22:59.109Z,99587.25
2019-02-07T19:25:25.573Z,99581.22
2019-02-07T19:27:52.211Z,99581.18
2019-02-07T19:30:26.058Z,99587.10
2019-02-07T19:32:53.300Z,99588.64
2019-02-07T19:35:19.648Z,99580.84
2019-02-07T19:37:46.399Z,99585.88
2019-02-07T19:40:18.165Z,99599.05
2019-02-07T19:42:44.965Z,99604.95
2019-02-07T19:45:22.119Z,99627.63
2019-02-07T19:47:48.888Z,99639.09
2019-02-07T19:50:20.878Z,99652.41
2019-02-07T19:52:47.993Z,99657.14
2019-02-07T19:55:17.621Z,99651.72
2019-02-07T19:57:44.174Z,99653.11
2019-02-07T20:00:30.794Z,99653.17
2019-02-07T20:02:57.553Z,99653.72
2019-02-07T20:05:24.164Z,99647.09
2019-02-07T20:07:50.608Z,99662.61
2019-02-07T20:10:23.218Z,99671.39
2019-02-07T20:12:50.570Z,99678.77
2019-02-07T20:15:24.457Z,99695.73
2019-02-07T20:17:51.541Z,99700.62
2019-02-07T20:20:17.984Z,99697.52
2019-02-07T20:22:46.531Z,99695.03
2019-02-07T20:25:15.269Z,99700.20
2019-02-07T20:27:41.875Z,99703.12
2019-02-07T20:30:16.470Z,99701.05
2019-02-07T20:32:43.212Z,99707.30
2019-02-07T20:35:10.433Z,99708.23
2019-02-07T20:37:37.229Z,99720.84
2019-02-07T20:40:08.477Z,99732.25
2019-02-07T20:42:35.004Z,99729.30
2019-02-07T20:45:01.502Z,99707.39
2019-02-07T20:47:27.976Z,99731.66
2019-02-07T20:49:54.827Z,99730.41
2019-02-07T20:52:27.152Z,99727.94
2019-02-07T20:54:49.933Z,99729.59
2019-02-07T20:57:16.423Z,99730.62
2019-02-07T20:59:43.202Z,99728.63
2019-02-07T21:02:09.516Z,99717.26
2019-02-07T21:04:35.917Z,99724.31
2019-02-07T21:07:02.525Z,99725.67
2019-02-07T21:09:29.330Z,99732.57
2019-02-07T21:11:56.439Z,99735.45
2019-02-07T21:14:22.858Z,99744.31
2019-02-07T21:16:49.530Z,99745.06
2019-02-07T21:19:15.888Z,99738.45
2019-02-07T21:21:42.533Z,99744.16
2019-02-07T21:24:09.263Z,99742.38
2019-02-07T21:26:35.842Z,99742.32
2019-02-07T21:29:02.585Z,99742.73
2019-02-07T21:31:29.323Z,99741.83
2019-02-07T21:33:56.247Z,99741.05
2019-02-07T21:36:22.929Z,99745.55
2019-02-07T21:38:49.366Z,99744.42
2019-02-07T21:41:17.946Z,99746.56
2019-02-07T21:43:44.283Z,99746.50
2019-02-07T21:46:10.898Z,99748.38
2019-02-07T21:48:37.376Z,99754.72
2019-02-07T21:51:04.337Z,99748.44
2019-02-07T21:53:30.649Z,99751.28
2019-02-07T21:55:57.658Z,99751.67
2019-02-07T21:58:24.268Z,99753.32
2019-02-07T22:00:51.063Z,99756.59
2019-02-07T22:03:18.126Z,99761.38
2019-02-07T22:05:44.761Z,99756.87
2019-02-07T22:08:11.796Z,99762.34
2019-02-07T22:10:38.703Z,99758.52
2019-02-07T22:13:05.744Z,99758.34
2019-02-07T22:15:32.217Z,99759.09
2019-02-07T22:17:59.878Z,99761.39
2019-02-07T22:20:29.019Z,99761.22
2019-02-07T22:22:55.752Z,99766.84
2019-02-07T22:25:22.287Z,99766.00
2019-02-07T22:27:48.724Z,99764.47
2019-02-07T22:30:25.913Z,99773.09
2019-02-07T22:32:52.358Z,99773.66
2019-02-07T22:35:18.696Z,99776.12
2019-02-07T22:37:45.211Z,99772.87
2019-02-07T22:40:20.812Z,99780.36
2019-02-07T22:42:48.170Z,99773.98
2019-02-07T22:45:17.633Z,99773.69
2019-02-07T22:47:44.341Z,99773.00
2019-02-07T22:50:15.108Z,99781.16
2019-02-07T22:52:41.498Z,99783.97
2019-02-07T22:55:09.748Z,99784.27
2019-02-07T22:57:36.485Z,99795.98
2019-02-07T23:00:33.258Z,99796.58
2019-02-07T23:03:17.295Z,99793.39
2019-02-07T23:05:43.703Z,99799.73
2019-02-07T23:08:10.738Z,99795.91
2019-02-07T23:10:39.298Z,99781.25
2019-02-07T23:13:07.119Z,99790.06
2019-02-07T23:15:33.442Z,99796.50
2019-02-07T23:17:59.762Z,99783.38
2019-02-07T23:20:26.082Z,99794.11
2019-02-07T23:22:52.665Z,99800.64
2019-02-07T23:25:19.278Z,99793.86
2019-02-07T23:27:45.714Z,99812.92
2019-02-07T23:30:17.439Z,99807.64
2019-02-07T23:32:44.226Z,99801.23
2019-02-07T23:35:11.226Z,99807.17
2019-02-07T23:37:37.632Z,99802.58
2019-02-07T23:40:11.583Z,99811.63
2019-02-07T23:42:37.999Z,99802.00
2019-02-07T23:45:11.084Z,99803.73
2019-02-07T23:47:37.680Z,99803.95
2019-02-07T23:50:07.239Z,99807.88
2019-02-07T23:52:33.814Z,99804.96
2019-02-07T23:55:01.229Z,99815.31
2019-02-07T23:57:27.886Z,99820.94
2019-02-07T23:59:54.457Z,99820.69
